createdAt,value
2019-05-02T00:00:34.519Z,1285.80
2019-05-02T00:01:34.515Z,1289.00
2019-05-02T00:02:34.516Z,1284.40
2019-05-02T00:03:35.874Z,1279.20
2019-05-02T00:04:35.489Z,1277.10
2019-05-02T00:05:34.467Z,1290.30
2019-05-02T00:06:38.087Z,1276.80
2019-05-02T00:07:35.471Z,1281.40
2019-05-02T00:08:34.460Z,1276.50
2019-05-02T00:09:34.422Z,1268.90
2019-05-02T00:10:34.415Z,1284.60
2019-05-02T00:11:34.402Z,1282.50
2019-05-02T00:12:34.426Z,1279.90
2019-05-02T00:13:34.395Z,1285.50
2019-05-02T00:14:34.370Z,1278.70
2019-05-02T00:15:38.294Z,1279.20
2019-05-02T00:16:34.347Z,1292.50
2019-05-02T00:17:34.357Z,1287.50
2019-05-02T00:18:37.192Z,1283.40
2019-05-02T00:19:34.327Z,1289.50
2019-05-02T00:20:34.306Z,1286.60
2019-05-02T00:21:38.171Z,1285.70
2019-05-02T00:22:35.298Z,1291.00
2019-05-02T00:23:34.272Z,1296.90
2019-05-02T00:24:39.372Z,1293.30
2019-05-02T00:25:35.271Z,1285.10
2019-05-02T00:26:34.247Z,1287.30
2019-05-02T00:27:37.778Z,1285.40
2019-05-02T00:28:34.218Z,1293.10
2019-05-02T00:29:34.207Z,1292.00
2019-05-02T00:30:34.749Z,1303.10
2019-05-02T00:31:34.207Z,1298.50
2019-05-02T00:32:34.191Z,1296.30
2019-05-02T00:33:35.764Z,1287.00
2019-05-02T00:34:34.155Z,1292.20
2019-05-02T00:35:34.143Z,1292.70
2019-05-02T00:36:34.135Z,1292.70
2019-05-02T00:37:34.154Z,1292.80
2019-05-02T00:38:38.543Z,1290.00
2019-05-02T00:39:35.101Z,1284.80
2019-05-02T00:40:34.088Z,1297.60
2019-05-02T00:41:38.389Z,1286.80
2019-05-02T00:42:35.088Z,1288.00
2019-05-02T00:43:36.235Z,1293.40
2019-05-02T00:44:34.047Z,1296.40
2019-05-02T00:45:34.036Z,1300.30
2019-05-02T00:46:34.922Z,1289.50
2019-05-02T00:47:34.016Z,1297.10
2019-05-02T00:48:34.019Z,1308.90
2019-05-02T00:49:35.422Z,1298.10
2019-05-02T00:50:33.985Z,1298.00
2019-05-02T00:51:33.973Z,1302.70
2019-05-02T00:52:36.675Z,1292.30
2019-05-02T00:53:33.965Z,1298.30
2019-05-02T00:54:33.941Z,1302.60
2019-05-02T00:55:35.538Z,1304.80
2019-05-02T00:56:33.916Z,1301.00
2019-05-02T00:57:34.084Z,1298.80
2019-05-02T00:58:33.913Z,1300.30
2019-05-02T00:59:37.834Z,1301.30
2019-05-02T01:00:34.874Z,1305.90
2019-05-02T01:01:33.874Z,1307.70
2019-05-02T01:02:35.949Z,1301.00
2019-05-02T01:03:34.858Z,1309.30
2019-05-02T01:04:33.831Z,1296.70
2019-05-02T01:05:38.347Z,1296.10
2019-05-02T01:06:34.806Z,1297.70
2019-05-02T01:07:33.814Z,1309.80
2019-05-02T01:08:35.647Z,1300.70
2019-05-02T01:09:33.779Z,1301.10
2019-05-02T01:10:33.766Z,1303.20
2019-05-02T01:11:33.754Z,1297.00
2019-05-02T01:12:33.743Z,1299.80
2019-05-02T01:13:33.765Z,1309.80
2019-05-02T01:14:33.730Z,1303.30
2019-05-02T01:15:33.716Z,1294.10
2019-05-02T01:16:33.705Z,1306.60
2019-05-02T01:17:33.705Z,1317.50
2019-05-02T01:18:37.290Z,1309.70
2019-05-02T01:19:33.680Z,1307.30
2019-05-02T01:20:33.660Z,1316.10
2019-05-02T01:21:34.005Z,1318.20
2019-05-02T01:22:33.639Z,1321.90
2019-05-02T01:23:33.644Z,1305.50
2019-05-02T01:24:34.080Z,1311.80
2019-05-02T01:25:34.615Z,1313.60
2019-05-02T01:26:33.592Z,1299.60
2019-05-02T01:27:36.094Z,1314.40
2019-05-02T01:28:34.585Z,1327.00
2019-05-02T01:29:33.567Z,1315.10
2019-05-02T01:30:37.281Z,1318.00
2019-05-02T01:31:34.551Z,1313.70
2019-05-02T01:32:33.528Z,1319.60
2019-05-02T01:33:36.847Z,1320.40
2019-05-02T01:34:34.505Z,1310.80
2019-05-02T01:35:33.498Z,1322.50
2019-05-02T01:36:36.699Z,1324.70
2019-05-02T01:37:33.479Z,1320.60
2019-05-02T01:38:33.794Z,1314.30
2019-05-02T01:39:37.800Z,1314.50
2019-05-02T01:40:34.444Z,1315.90
2019-05-02T01:41:33.431Z,1307.60
2019-05-02T01:42:40.115Z,1306.10
2019-05-02T01:43:34.443Z,1309.50
2019-05-02T01:44:36.438Z,1293.00
2019-05-02T01:45:33.388Z,1288.50
2019-05-02T01:46:33.379Z,1297.60
2019-05-02T01:47:34.164Z,1297.30
2019-05-02T01:48:33.358Z,1299.60
2019-05-02T01:49:33.394Z,1301.90
2019-05-02T01:50:33.669Z,1299.60
2019-05-02T01:51:36.502Z,1297.60
2019-05-02T01:52:33.316Z,1293.90
2019-05-02T01:53:34.193Z,1309.90
2019-05-02T01:54:33.313Z,1299.70
2019-05-02T01:55:33.294Z,1311.50
2019-05-02T01:56:34.918Z,1316.30
2019-05-02T01:57:33.265Z,1309.70
2019-05-02T01:58:33.249Z,1308.90
2019-05-02T01:59:33.890Z,1314.90
2019-05-02T02:00:33.442Z,1315.00
2019-05-02T02:01:33.223Z,1317.50
2019-05-02T02:02:34.117Z,1315.20
2019-05-02T02:03:33.196Z,1321.40
2019-05-02T02:04:33.204Z,1317.30
2019-05-02T02:05:33.516Z,1324.90
2019-05-02T02:06:33.167Z,1327.00
2019-05-02T02:07:33.168Z,1320.80
2019-05-02T02:08:33.978Z,1315.40
2019-05-02T02:09:33.147Z,1314.20
2019-05-02T02:10:33.123Z,1299.30
2019-05-02T02:11:34.060Z,1299.10
2019-05-02T02:12:33.100Z,1299.50
2019-05-02T02:13:36.587Z,1304.20
2019-05-02T02:14:33.104Z,1290.30
2019-05-02T02:15:33.072Z,1279.70
2019-05-02T02:16:35.224Z,1292.30
2019-05-02T02:17:34.045Z,1291.40
2019-05-02T02:18:33.040Z,1279.20
2019-05-02T02:19:34.619Z,1290.00
2019-05-02T02:20:34.029Z,1280.80
2019-05-02T02:21:33.055Z,1290.10
2019-05-02T02:22:33.765Z,1286.20
2019-05-02T02:23:33.983Z,1297.40
2019-05-02T02:24:33.011Z,1291.40
2019-05-02T02:25:36.274Z,1295.80
2019-05-02T02:26:32.996Z,1303.30
2019-05-02T02:27:32.938Z,1301.00
2019-05-02T02:28:33.211Z,1299.00
2019-05-02T02:29:32.916Z,1305.50
2019-05-02T02:30:32.925Z,1303.00
2019-05-02T02:31:39.945Z,1311.80
2019-05-02T02:32:33.890Z,1320.40
2019-05-02T02:33:32.892Z,1321.40
2019-05-02T02:34:32.883Z,1323.40
2019-05-02T02:35:32.874Z,1304.90
2019-05-02T02:36:34.751Z,1307.40
2019-05-02T02:37:32.841Z,1322.10
2019-05-02T02:38:35.100Z,1310.80
2019-05-02T02:39:32.817Z,1307.20
2019-05-02T02:40:33.681Z,1325.60
2019-05-02T02:41:32.791Z,1324.80
2019-05-02T02:42:34.157Z,1318.80
2019-05-02T02:43:34.842Z,1312.20
2019-05-02T02:44:33.595Z,1315.50
2019-05-02T02:45:33.760Z,1314.00
2019-05-02T02:46:37.868Z,1308.30
2019-05-02T02:47:33.728Z,1311.40
2019-05-02T02:48:34.021Z,1310.40
2019-05-02T02:49:33.702Z,1315.60
2019-05-02T02:50:36.517Z,1310.40
2019-05-02T02:51:33.680Z,1318.70
2019-05-02T02:52:37.698Z,1320.00
2019-05-02T02:53:33.665Z,1314.50
2019-05-02T02:54:36.587Z,1327.10
2019-05-02T02:55:33.652Z,1336.10
2019-05-02T02:56:34.507Z,1331.40
2019-05-02T02:57:33.626Z,1327.10
2019-05-02T02:58:44.144Z,1329.80
2019-05-02T02:59:33.597Z,1332.30
2019-05-02T03:00:32.642Z,1330.50
2019-05-02T03:01:32.574Z,1331.70
2019-05-02T03:02:32.572Z,1331.10
2019-05-02T03:03:35.200Z,1327.70
2019-05-02T03:04:32.544Z,1334.80
2019-05-02T03:05:32.549Z,1338.40
2019-05-02T03:06:32.524Z,1328.00
2019-05-02T03:07:32.515Z,1327.40
2019-05-02T03:08:32.521Z,1326.10
2019-05-02T03:09:32.490Z,1323.30
2019-05-02T03:10:32.502Z,1335.10
2019-05-02T03:11:32.472Z,1338.20
2019-05-02T03:12:36.215Z,1331.20
2019-05-02T03:13:50.448Z,1331.60
2019-05-02T03:14:33.443Z,1323.00
2019-05-02T03:15:32.442Z,1318.00
2019-05-02T03:16:32.417Z,1328.50
2019-05-02T03:17:32.404Z,1334.20
2019-05-02T03:18:39.787Z,1329.20
2019-05-02T03:19:33.381Z,1321.30
2019-05-02T03:20:39.854Z,1329.20
2019-05-02T03:21:33.365Z,1331.70
2019-05-02T03:22:34.677Z,1326.10
2019-05-02T03:23:33.343Z,1318.90
2019-05-02T03:24:36.791Z,1326.80
2019-05-02T03:25:49.995Z,1322.30
2019-05-02T03:26:33.320Z,1318.50
2019-05-02T03:27:37.064Z,1315.70
2019-05-02T03:28:33.284Z,1314.40
2019-05-02T03:29:40.890Z,1312.40
2019-05-02T03:30:37.313Z,1318.70
2019-05-02T03:31:32.284Z,1312.60
2019-05-02T03:32:35.690Z,1310.50
2019-05-02T03:33:51.437Z,1303.80
2019-05-02T03:34:47.215Z,1307.00
2019-05-02T03:35:42.562Z,1317.10
2019-05-02T03:36:36.392Z,1306.10
2019-05-02T03:37:32.193Z,1303.70
2019-05-02T03:38:34.972Z,1300.20
2019-05-02T03:39:32.171Z,1298.90
2019-05-02T03:40:38.901Z,1300.20
2019-05-02T03:41:33.166Z,1308.40
2019-05-02T03:42:43.896Z,1301.60
2019-05-02T03:43:33.127Z,1306.40
2019-05-02T03:44:32.265Z,1320.30
2019-05-02T03:45:39.988Z,1298.60
2019-05-02T03:46:33.110Z,1305.60
2019-05-02T03:47:36.896Z,1291.00
2019-05-02T03:48:33.072Z,1300.60
2019-05-02T03:49:32.065Z,1309.00
2019-05-02T03:50:35.082Z,1290.20
2019-05-02T03:51:32.066Z,1300.00
2019-05-02T03:52:36.557Z,1292.30
2019-05-02T03:53:33.018Z,1299.30
2019-05-02T03:54:32.010Z,1280.90
2019-05-02T03:55:34.003Z,1293.80
2019-05-02T03:56:32.020Z,1280.80
2019-05-02T03:57:35.652Z,1279.50
2019-05-02T03:58:31.965Z,1288.90
2019-05-02T03:59:38.498Z,1276.50
2019-05-02T04:00:32.949Z,1279.00
2019-05-02T04:01:34.677Z,1278.60
2019-05-02T04:02:32.938Z,1279.90
2019-05-02T04:03:34.035Z,1287.40
2019-05-02T04:04:32.897Z,1271.90
2019-05-02T04:05:33.805Z,1266.60
2019-05-02T04:06:32.894Z,1262.20
2019-05-02T04:07:39.640Z,1274.40
2019-05-02T04:08:32.863Z,1264.40
2019-05-02T04:09:37.946Z,1263.20
2019-05-02T04:10:32.834Z,1263.30
2019-05-02T04:11:38.030Z,1275.70
2019-05-02T04:12:33.227Z,1262.20
2019-05-02T04:13:36.314Z,1259.40
2019-05-02T04:14:37.782Z,1253.40
2019-05-02T04:15:35.249Z,1256.10
2019-05-02T04:16:31.787Z,1271.60
2019-05-02T04:17:35.364Z,1263.50
2019-05-02T04:18:32.747Z,1264.00
2019-05-02T04:19:34.960Z,1265.40
2019-05-02T04:20:31.737Z,1254.20
2019-05-02T04:21:31.736Z,1263.50
2019-05-02T04:22:31.712Z,1258.10
2019-05-02T04:23:31.694Z,1268.10
2019-05-02T04:24:31.685Z,1251.50
2019-05-02T04:25:34.079Z,1254.50
2019-05-02T04:26:31.676Z,1257.30
2019-05-02T04:27:34.049Z,1264.30
2019-05-02T04:28:31.692Z,1248.20
2019-05-02T04:29:33.080Z,1257.40
2019-05-02T04:30:31.631Z,1257.60
2019-05-02T04:31:33.577Z,1256.60
2019-05-02T04:32:31.597Z,1240.50
2019-05-02T04:33:35.043Z,1254.50
2019-05-02T04:34:31.576Z,1258.80
2019-05-02T04:35:34.879Z,1257.60
2019-05-02T04:36:31.556Z,1262.80
2019-05-02T04:37:34.212Z,1255.40
2019-05-02T04:38:44.608Z,1251.90
2019-05-02T04:39:32.536Z,1268.40
2019-05-02T04:40:40.424Z,1262.80
2019-05-02T04:41:34.413Z,1258.70
2019-05-02T04:42:31.507Z,1254.20
2019-05-02T04:43:31.479Z,1261.70
2019-05-02T04:44:41.146Z,1251.90
2019-05-02T04:45:47.307Z,1260.50
2019-05-02T04:46:32.450Z,1270.20
2019-05-02T04:47:31.453Z,1259.10
2019-05-02T04:48:34.646Z,1255.80
2019-05-02T04:49:35.764Z,1271.10
2019-05-02T04:50:31.406Z,1253.90
2019-05-02T04:51:32.296Z,1248.10
2019-05-02T04:52:31.397Z,1254.20
2019-05-02T04:53:36.647Z,1256.50
2019-05-02T04:54:32.836Z,1246.60
2019-05-02T04:55:33.464Z,1255.20
2019-05-02T04:56:31.340Z,1248.60
2019-05-02T04:57:37.099Z,1263.00
2019-05-02T04:58:36.504Z,1248.10
2019-05-02T04:59:33.240Z,1234.20
2019-05-02T05:00:31.299Z,1236.90
2019-05-02T05:01:41.900Z,1234.90
2019-05-02T05:02:36.747Z,1228.50
2019-05-02T05:03:32.268Z,1240.60
2019-05-02T05:04:33.266Z,1235.90
2019-05-02T05:05:32.244Z,1224.70
2019-05-02T05:06:31.232Z,1225.30
2019-05-02T05:07:43.512Z,1229.20
2019-05-02T05:08:32.208Z,1222.50
2019-05-02T05:09:31.211Z,1239.20
2019-05-02T05:10:40.348Z,1231.90
2019-05-02T05:11:31.178Z,1240.50
2019-05-02T05:12:32.481Z,1243.20
2019-05-02T05:13:32.155Z,1234.20
2019-05-02T05:14:38.068Z,1226.80
2019-05-02T05:15:40.271Z,1220.70
2019-05-02T05:16:32.125Z,1222.70
2019-05-02T05:17:34.049Z,1215.10
2019-05-02T05:18:31.102Z,1226.10
2019-05-02T05:19:32.811Z,1207.50
2019-05-02T05:20:31.081Z,1202.80
2019-05-02T05:21:31.103Z,1201.70
2019-05-02T05:22:31.079Z,1213.10
2019-05-02T05:23:31.049Z,1197.90
2019-05-02T05:24:32.856Z,1194.80
2019-05-02T05:25:32.025Z,1194.60
2019-05-02T05:26:33.759Z,1191.00
2019-05-02T05:27:32.025Z,1200.80
2019-05-02T05:28:35.065Z,1185.80
2019-05-02T05:29:32.001Z,1196.40
2019-05-02T05:30:30.972Z,1190.20
2019-05-02T05:31:30.972Z,1186.30
2019-05-02T05:32:30.954Z,1180.40
2019-05-02T05:33:30.959Z,1180.20
2019-05-02T05:34:32.803Z,1176.10
2019-05-02T05:35:30.936Z,1197.20
2019-05-02T05:36:33.913Z,1165.70
2019-05-02T05:37:30.904Z,1159.90
2019-05-02T05:38:33.362Z,1175.80
2019-05-02T05:39:30.878Z,1159.80
2019-05-02T05:40:32.289Z,1165.20
2019-05-02T05:41:30.865Z,1158.60
2019-05-02T05:42:33.283Z,1161.80
2019-05-02T05:43:30.852Z,1157.40
2019-05-02T05:44:32.622Z,1155.50
2019-05-02T05:45:30.812Z,1159.30
2019-05-02T05:46:33.319Z,1146.00
2019-05-02T05:47:31.788Z,1135.20
2019-05-02T05:48:32.229Z,1160.20
2019-05-02T05:49:31.767Z,1129.30
2019-05-02T05:50:32.296Z,1127.60
2019-05-02T05:51:31.747Z,1142.00
2019-05-02T05:52:33.031Z,1126.30
2019-05-02T05:53:31.744Z,1124.40
2019-05-02T05:54:33.038Z,1118.20
2019-05-02T05:55:31.780Z,1123.70
2019-05-02T05:56:32.434Z,1103.30
2019-05-02T05:57:31.681Z,1102.40
2019-05-02T05:58:30.703Z,1117.70
2019-05-02T05:59:32.206Z,1128.30
2019-05-02T06:00:30.663Z,1081.90
2019-05-02T06:01:34.026Z,1078.60
2019-05-02T06:02:31.630Z,1060.50
2019-05-02T06:03:34.044Z,1073.20
2019-05-02T06:04:33.292Z,1060.80
2019-05-02T06:05:33.110Z,1060.90
2019-05-02T06:06:31.583Z,1093.90
2019-05-02T06:07:33.580Z,1110.40
2019-05-02T06:08:31.584Z,1077.70
2019-05-02T06:09:31.023Z,1086.00
2019-05-02T06:10:30.543Z,1126.00
2019-05-02T06:11:30.531Z,1102.30
2019-05-02T06:12:35.147Z,1144.40
2019-05-02T06:13:31.545Z,1110.00
2019-05-02T06:14:30.523Z,1090.00
2019-05-02T06:15:33.811Z,1094.30
2019-05-02T06:16:31.474Z,1097.60
2019-05-02T06:17:30.551Z,1125.00
2019-05-02T06:18:30.486Z,1101.10
2019-05-02T06:19:30.443Z,1120.50
2019-05-02T06:20:31.771Z,1154.00
2019-05-02T06:21:30.421Z,1133.90
2019-05-02T06:22:30.413Z,1163.60
2019-05-02T06:23:31.106Z,1182.20
2019-05-02T06:24:33.871Z,1173.30
2019-05-02T06:25:34.223Z,1151.40
2019-05-02T06:26:31.371Z,1158.80
2019-05-02T06:27:30.584Z,1174.70
2019-05-02T06:28:30.360Z,1204.00
2019-05-02T06:29:30.354Z,1175.90
2019-05-02T06:30:31.040Z,1198.20
2019-05-02T06:31:30.313Z,1197.10
2019-05-02T06:32:30.304Z,1152.60
2019-05-02T06:33:30.707Z,1117.40
2019-05-02T06:34:30.280Z,1135.50
2019-05-02T06:35:30.327Z,1150.80
2019-05-02T06:36:32.008Z,1121.20
2019-05-02T06:37:31.262Z,1132.10
2019-05-02T06:38:30.238Z,1116.10
2019-05-02T06:39:31.977Z,1077.20
2019-05-02T06:40:30.217Z,1094.40
2019-05-02T06:41:30.204Z,1103.60
2019-05-02T06:42:32.703Z,1067.90
2019-05-02T06:43:30.185Z,1079.50
2019-05-02T06:44:30.194Z,1088.60
2019-05-02T06:45:32.197Z,1053.50
2019-05-02T06:46:31.152Z,1046.60
2019-05-02T06:47:30.138Z,1048.60
2019-05-02T06:48:30.138Z,1079.60
2019-05-02T06:49:30.137Z,1098.20
2019-05-02T06:50:33.431Z,1067.90
2019-05-02T06:51:31.094Z,1079.20
2019-05-02T06:52:32.833Z,1073.00
2019-05-02T06:53:30.084Z,1065.40
2019-05-02T06:54:30.095Z,1057.90
2019-05-02T06:55:36.198Z,1039.30
2019-05-02T06:56:31.046Z,1004.40
2019-05-02T06:57:30.048Z,1033.00
2019-05-02T06:58:30.020Z,1008.40
2019-05-02T06:59:30.024Z,1022.40
2019-05-02T07:00:38.420Z,1024.20
2019-05-02T07:01:30.989Z,1022.60
2019-05-02T07:02:33.513Z,1055.90
2019-05-02T07:03:30.968Z,1045.50
2019-05-02T07:04:29.973Z,1042.10
2019-05-02T07:05:29.944Z,1054.10
2019-05-02T07:06:30.255Z,1056.20
2019-05-02T07:07:31.998Z,1068.50
2019-05-02T07:08:31.036Z,1084.70
2019-05-02T07:09:40.523Z,1089.00
2019-05-02T07:10:43.907Z,1084.60
2019-05-02T07:11:33.226Z,1083.60
2019-05-02T07:12:30.872Z,1080.10
2019-05-02T07:13:29.858Z,1068.50
2019-05-02T07:14:29.862Z,1056.60
2019-05-02T07:15:33.573Z,1076.20
2019-05-02T07:16:38.626Z,1070.40
2019-05-02T07:17:32.045Z,1071.00
2019-05-02T07:18:29.807Z,1070.00
2019-05-02T07:19:29.812Z,1080.40
2019-05-02T07:20:29.782Z,1098.40
2019-05-02T07:21:29.772Z,1091.20
2019-05-02T07:22:33.084Z,1086.10
2019-05-02T07:23:30.776Z,1074.90
2019-05-02T07:24:30.721Z,1086.50
2019-05-02T07:25:29.727Z,1085.70
2019-05-02T07:26:29.719Z,1083.60
2019-05-02T07:27:33.779Z,1090.00
2019-05-02T07:28:30.695Z,1090.70
2019-05-02T07:29:29.710Z,1080.90
2019-05-02T07:30:30.071Z,1093.00
2019-05-02T07:31:29.662Z,1099.10
2019-05-02T07:32:29.652Z,1102.70
2019-05-02T07:33:32.382Z,1104.70
2019-05-02T07:34:30.651Z,1096.70
2019-05-02T07:35:29.624Z,1092.10
2019-05-02T07:36:31.270Z,1094.70
2019-05-02T07:37:30.606Z,1107.70
2019-05-02T07:38:29.796Z,1103.40
2019-05-02T07:39:29.576Z,1108.30
2019-05-02T07:40:29.582Z,1102.40
2019-05-02T07:41:30.306Z,1097.40
2019-05-02T07:42:29.563Z,1101.30
2019-05-02T07:43:29.535Z,1102.50
2019-05-02T07:44:32.705Z,1100.30
2019-05-02T07:45:29.528Z,1104.60
2019-05-02T07:46:29.500Z,1107.50
2019-05-02T07:47:29.491Z,1110.10
2019-05-02T07:48:29.486Z,1108.00
2019-05-02T07:49:32.430Z,1106.20
2019-05-02T07:50:29.471Z,1120.50
2019-05-02T07:51:29.446Z,1118.40
2019-05-02T07:52:33.609Z,1111.30
2019-05-02T07:53:29.424Z,1120.90
2019-05-02T07:54:29.414Z,1117.00
2019-05-02T07:55:30.673Z,1112.60
2019-05-02T07:56:30.390Z,1111.70
2019-05-02T07:57:30.583Z,1111.30
2019-05-02T07:58:29.368Z,1111.10
2019-05-02T07:59:29.538Z,1106.60
2019-05-02T08:00:32.189Z,1111.60
2019-05-02T08:01:30.360Z,1099.80
2019-05-02T08:02:29.334Z,1107.90
2019-05-02T08:03:33.450Z,1106.70
2019-05-02T08:04:30.305Z,1114.70
2019-05-02T08:05:29.314Z,1115.80
2019-05-02T08:06:35.391Z,1117.80
2019-05-02T08:07:34.340Z,1111.40
2019-05-02T08:08:29.865Z,1115.90
2019-05-02T08:09:29.276Z,1125.90
2019-05-02T08:10:29.260Z,1121.00
2019-05-02T08:11:32.289Z,1108.20
2019-05-02T08:12:30.219Z,1102.50
2019-05-02T08:13:31.443Z,1114.30
2019-05-02T08:14:34.235Z,1093.60
2019-05-02T08:15:30.222Z,1102.90
2019-05-02T08:16:29.202Z,1116.20
2019-05-02T08:17:29.166Z,1108.90
2019-05-02T08:18:30.444Z,1102.20
2019-05-02T08:19:29.178Z,1102.50
2019-05-02T08:20:29.244Z,1107.50
2019-05-02T08:21:32.477Z,1103.40
2019-05-02T08:22:29.143Z,1095.90
2019-05-02T08:23:29.145Z,1095.00
2019-05-02T08:24:33.198Z,1100.90
2019-05-02T08:25:30.171Z,1103.00
2019-05-02T08:26:29.100Z,1097.60
2019-05-02T08:27:34.049Z,1096.50
2019-05-02T08:28:30.799Z,1091.90
2019-05-02T08:29:30.743Z,1111.20
2019-05-02T08:30:29.090Z,1096.70
2019-05-02T08:31:30.199Z,1100.80
2019-05-02T08:32:29.076Z,1103.80
2019-05-02T08:33:34.396Z,1090.10
2019-05-02T08:34:30.020Z,1105.50
2019-05-02T08:35:29.063Z,1097.00
2019-05-02T08:36:29.015Z,1099.50
2019-05-02T08:37:28.946Z,1111.70
2019-05-02T08:38:28.941Z,1107.40
2019-05-02T08:39:33.347Z,1105.70
2019-05-02T08:40:28.913Z,1108.90
2019-05-02T08:41:29.048Z,1098.90
2019-05-02T08:42:32.505Z,1089.40
2019-05-02T08:43:29.734Z,1101.40
2019-05-02T08:44:28.910Z,1086.60
2019-05-02T08:45:33.102Z,1065.60
2019-05-02T08:46:29.866Z,1086.90
2019-05-02T08:47:30.499Z,1084.30
2019-05-02T08:48:28.827Z,1082.20
2019-05-02T08:49:28.880Z,1076.40
2019-05-02T08:50:31.911Z,1069.90
2019-05-02T08:51:28.964Z,1068.40
2019-05-02T08:52:28.815Z,1071.60
2019-05-02T08:53:28.776Z,1068.00
2019-05-02T08:54:32.789Z,1066.10
2019-05-02T08:55:31.823Z,1083.20
2019-05-02T08:56:29.907Z,1095.60
2019-05-02T08:57:30.042Z,1084.30
2019-05-02T08:58:30.256Z,1086.00
2019-05-02T08:59:28.732Z,1099.70
2019-05-02T09:00:32.211Z,1118.40
2019-05-02T09:01:35.352Z,1081.40
2019-05-02T09:02:40.849Z,1087.30
2019-05-02T09:03:38.877Z,1100.30
2019-05-02T09:04:30.732Z,1087.40
2019-05-02T09:05:28.691Z,1098.70
2019-05-02T09:06:28.793Z,1080.80
2019-05-02T09:07:31.789Z,1088.20
2019-05-02T09:08:29.654Z,1090.90
2019-05-02T09:09:29.571Z,1083.00
2019-05-02T09:10:30.282Z,1076.30
2019-05-02T09:11:28.679Z,1096.80
2019-05-02T09:12:28.595Z,1080.70
2019-05-02T09:13:29.441Z,1084.40
2019-05-02T09:14:29.258Z,1077.40
2019-05-02T09:15:28.535Z,1071.80
2019-05-02T09:16:30.292Z,1082.30
2019-05-02T09:17:37.674Z,1073.90
2019-05-02T09:18:35.014Z,1073.30
2019-05-02T09:19:34.077Z,1080.20
2019-05-02T09:20:29.512Z,1074.20
2019-05-02T09:21:34.249Z,1075.80
2019-05-02T09:22:29.497Z,1048.90
2019-05-02T09:23:33.118Z,1064.50
2019-05-02T09:24:32.573Z,1068.00
2019-05-02T09:25:28.470Z,1056.40
2019-05-02T09:26:35.995Z,1061.90
2019-05-02T09:27:29.403Z,1063.40
2019-05-02T09:28:28.451Z,1070.50
2019-05-02T09:29:28.449Z,1063.00
2019-05-02T09:30:29.295Z,1071.00
2019-05-02T09:31:28.520Z,1060.70
2019-05-02T09:32:28.370Z,1055.80
2019-05-02T09:33:28.360Z,1057.60
2019-05-02T09:34:28.365Z,1058.80
2019-05-02T09:35:28.337Z,1047.20
2019-05-02T09:36:28.310Z,1058.80
2019-05-02T09:37:28.367Z,1042.20
2019-05-02T09:38:28.336Z,1042.00
2019-05-02T09:39:32.633Z,1031.10
2019-05-02T09:40:29.272Z,1017.20
2019-05-02T09:41:32.416Z,1028.40
2019-05-02T09:42:29.372Z,1021.10
2019-05-02T09:43:33.909Z,1048.20
2019-05-02T09:44:29.750Z,1004.00
2019-05-02T09:45:33.486Z,1021.30
2019-05-02T09:46:29.234Z,1043.60
2019-05-02T09:47:33.174Z,1047.30
2019-05-02T09:48:29.225Z,999.20
2019-05-02T09:49:29.811Z,996.70
2019-05-02T09:50:31.365Z,999.30
2019-05-02T09:51:29.740Z,1024.20
2019-05-02T09:52:34.044Z,1025.80
2019-05-02T09:53:29.112Z,1023.80
2019-05-02T09:54:28.146Z,1026.00
2019-05-02T09:55:28.157Z,1008.50
2019-05-02T09:56:28.157Z,1018.20
2019-05-02T09:57:29.761Z,1013.40
2019-05-02T09:58:28.074Z,1033.30
2019-05-02T09:59:30.400Z,1050.10
2019-05-02T10:00:32.296Z,1023.90
2019-05-02T10:01:29.081Z,967.70
2019-05-02T10:02:28.359Z,994.00
2019-05-02T10:03:28.084Z,993.60
2019-05-02T10:04:28.072Z,996.40
2019-05-02T10:05:28.060Z,1012.40
2019-05-02T10:06:31.370Z,987.00
2019-05-02T10:07:27.994Z,992.90
2019-05-02T10:08:27.983Z,988.00
2019-05-02T10:09:28.818Z,965.40
2019-05-02T10:10:27.975Z,951.10
2019-05-02T10:11:28.002Z,929.50
2019-05-02T10:12:28.017Z,935.60
2019-05-02T10:13:27.934Z,952.00
2019-05-02T10:14:27.945Z,980.10
2019-05-02T10:15:28.798Z,959.20
2019-05-02T10:16:27.899Z,965.20
2019-05-02T10:17:27.935Z,956.90
2019-05-02T10:18:30.226Z,970.80
2019-05-02T10:19:27.894Z,979.70
2019-05-02T10:20:31.807Z,929.20
2019-05-02T10:21:28.865Z,935.20
2019-05-02T10:22:32.308Z,891.50
2019-05-02T10:23:31.925Z,922.60
2019-05-02T10:24:28.771Z,934.90
2019-05-02T10:25:32.802Z,952.80
2019-05-02T10:26:28.772Z,955.30
2019-05-02T10:27:28.770Z,944.10
2019-05-02T10:28:27.853Z,947.00
2019-05-02T10:29:29.748Z,961.00
2019-05-02T10:30:27.740Z,903.20
2019-05-02T10:31:32.512Z,884.70
2019-05-02T10:32:28.750Z,933.50
2019-05-02T10:33:32.220Z,898.00
2019-05-02T10:34:28.221Z,928.30
2019-05-02T10:35:36.523Z,923.60
2019-05-02T10:36:28.735Z,934.60
2019-05-02T10:37:32.358Z,940.00
2019-05-02T10:38:28.824Z,938.30
2019-05-02T10:39:28.523Z,947.50
2019-05-02T10:40:28.668Z,977.80
2019-05-02T10:41:33.544Z,974.50
2019-05-02T10:42:28.611Z,970.50
2019-05-02T10:43:27.690Z,991.80
2019-05-02T10:44:32.725Z,996.90
2019-05-02T10:45:28.608Z,1002.60
2019-05-02T10:46:32.060Z,994.60
2019-05-02T10:47:28.573Z,993.10
2019-05-02T10:48:28.864Z,971.50
2019-05-02T10:49:27.530Z,977.30
2019-05-02T10:50:27.557Z,964.80
2019-05-02T10:51:27.527Z,965.40
2019-05-02T10:52:29.976Z,989.50
2019-05-02T10:53:28.314Z,972.50
2019-05-02T10:54:27.900Z,977.90
2019-05-02T10:55:28.455Z,946.10
2019-05-02T10:56:28.221Z,926.10
2019-05-02T10:57:29.309Z,889.20
2019-05-02T10:58:31.916Z,890.60
2019-05-02T10:59:28.455Z,879.00
2019-05-02T11:00:27.440Z,864.30
2019-05-02T11:01:27.415Z,863.60
2019-05-02T11:02:27.423Z,860.20
2019-05-02T11:03:27.444Z,844.90
2019-05-02T11:04:29.269Z,857.00
2019-05-02T11:05:27.401Z,810.00
2019-05-02T11:06:27.326Z,853.40
2019-05-02T11:07:27.351Z,848.50
2019-05-02T11:08:27.415Z,852.10
2019-05-02T11:09:28.301Z,857.10
2019-05-02T11:10:27.334Z,833.70
2019-05-02T11:11:27.348Z,841.10
2019-05-02T11:12:40.272Z,834.60
2019-05-02T11:13:28.333Z,851.00
2019-05-02T11:14:27.261Z,835.50
2019-05-02T11:15:27.275Z,846.50
2019-05-02T11:16:27.249Z,829.10
2019-05-02T11:17:27.239Z,842.70
2019-05-02T11:18:40.283Z,840.90
2019-05-02T11:19:27.303Z,830.30
2019-05-02T11:20:27.192Z,799.80
2019-05-02T11:21:27.802Z,782.90
2019-05-02T11:22:28.147Z,775.10
2019-05-02T11:23:27.212Z,793.50
2019-05-02T11:24:27.295Z,745.70
2019-05-02T11:25:27.185Z,777.70
2019-05-02T11:26:28.184Z,754.60
2019-05-02T11:27:27.146Z,758.30
2019-05-02T11:28:27.112Z,776.80
2019-05-02T11:29:27.217Z,784.00
2019-05-02T11:30:27.085Z,776.80
2019-05-02T11:31:27.790Z,755.80
2019-05-02T11:32:27.109Z,754.20
2019-05-02T11:33:27.117Z,782.90
2019-05-02T11:34:27.791Z,761.30
2019-05-02T11:35:27.019Z,785.80
2019-05-02T11:36:27.790Z,790.90
2019-05-02T11:37:28.060Z,750.00
2019-05-02T11:38:27.561Z,787.00
2019-05-02T11:39:37.336Z,766.10
2019-05-02T11:40:28.029Z,803.60
2019-05-02T11:41:27.031Z,769.20
2019-05-02T11:42:27.418Z,774.00
2019-05-02T11:43:26.948Z,808.60
2019-05-02T11:44:26.931Z,763.30
2019-05-02T11:45:26.917Z,789.70
2019-05-02T11:46:26.950Z,734.80
2019-05-02T11:47:27.785Z,612.20
2019-05-02T11:48:26.916Z,586.30
2019-05-02T11:49:26.935Z,746.90
2019-05-02T11:50:31.973Z,795.60
2019-05-02T11:51:28.814Z,830.90
2019-05-02T11:52:27.421Z,551.90
2019-05-02T11:53:29.411Z,582.40
2019-05-02T11:54:27.806Z,688.60
2019-05-02T11:55:28.952Z,595.80
2019-05-02T11:56:26.777Z,665.00
2019-05-02T11:57:28.916Z,610.90
2019-05-02T11:58:26.803Z,603.90
2019-05-02T11:59:28.218Z,507.80
2019-05-02T12:00:26.800Z,538.50
2019-05-02T12:01:35.768Z,532.00
2019-05-02T12:02:27.768Z,517.90
2019-05-02T12:03:28.213Z,539.40
2019-05-02T12:04:26.705Z,547.70
2019-05-02T12:05:33.712Z,571.70
2019-05-02T12:06:28.288Z,593.90
2019-05-02T12:07:26.730Z,605.20
2019-05-02T12:08:26.697Z,606.30
2019-05-02T12:09:26.636Z,601.60